Time;durP1;ratioP1;P1;durP2;ratioP2;P2;SDS_P1;SDS_P2;PMS_P1;PMS_P2;Temp;Humidity;BMP_temperature;BMP_pressure;BME280_temperature;BME280_humidity;BME280_pressure;Samples;Min_cycle;Max_cycle;Signal;HPM_P1;HPM_P2
2021/01/09 00:00:10;;;;;;;27.35;14.35;;;0.90;79.30;;;-1.34;80.99;96047.44;4988511;28;20054;-70
2021/01/09 00:02:36;;;;;;;24.10;13.77;;;0.80;79.00;;;-1.37;80.29;96054.59;4987047;28;20042;-71
2021/01/09 00:05:02;;;;;;;26.25;13.85;;;0.70;79.20;;;-1.41;80.47;96059.16;4984782;28;20046;-70
2021/01/09 00:07:31;;;;;;;27.60;14.20;;;0.60;79.60;;;-1.42;80.87;96064.44;4985434;28;20590;-71
2021/01/09 00:09:57;;;;;;;26.00;14.32;;;0.60;79.60;;;-1.44;80.45;96056.81;4955010;28;20054;-72
2021/01/09 00:12:23;;;;;;;25.00;14.35;;;0.70;79.60;;;-1.44;80.51;96066.31;4951571;28;20458;-70
2021/01/09 00:14:48;;;;;;;26.55;14.30;;;0.70;79.30;;;-1.44;80.71;96056.81;4987292;28;20142;-71
2021/01/09 00:17:14;;;;;;;25.92;13.27;;;0.70;79.20;;;-1.44;80.24;96061.97;4984438;28;20085;-71
2021/01/09 00:19:40;;;;;;;27.02;14.70;;;0.70;79.20;;;-1.44;80.33;96067.13;4968710;28;20129;-71
2021/01/09 00:22:06;;;;;;;25.90;14.20;;;0.70;79.10;;;-1.45;80.70;96065.50;4985103;28;20039;-71
2021/01/09 00:24:32;;;;;;;28.48;14.27;;;0.60;79.20;;;-1.49;80.38;96064.09;4986564;28;20058;-70
2021/01/09 00:26:58;;;;;;;29.52;14.50;;;0.60;79.50;;;-1.50;80.53;96061.63;4983458;28;20115;-73
2021/01/09 00:29:24;;;;;;;29.30;14.40;;;0.60;79.40;;;-1.52;80.83;96059.16;4951667;28;20035;-71
2021/01/09 00:31:50;;;;;;;28.30;14.40;;;0.50;79.70;;;-1.52;80.89;96059.16;4987049;28;20093;-73
2021/01/09 00:34:15;;;;;;;28.88;14.77;;;0.60;79.60;;;-1.53;80.52;96062.69;5000880;28;20372;-70
2021/01/09 00:36:48;;;;;;;27.05;14.30;;;0.50;79.80;;;-1.56;80.88;96068.06;4980931;28;20121;-70
2021/01/09 00:39:14;;;;;;;32.70;15.07;;;0.50;80.00;;;-1.58;80.50;96065.63;4987809;28;20117;-70
2021/01/09 00:41:40;;;;;;;26.48;13.95;;;0.40;80.00;;;-1.60;80.80;96064.06;4981900;28;20158;-71
2021/01/09 00:44:07;;;;;;;27.05;14.77;;;0.40;79.80;;;-1.62;80.40;96063.34;4985791;28;20173;-70
2021/01/09 00:46:33;;;;;;;30.58;14.68;;;0.40;79.90;;;-1.63;80.76;96066.88;4978861;28;20034;-70
2021/01/09 00:48:59;;;;;;;27.65;14.50;;;0.40;80.00;;;-1.66;80.90;96062.78;4986715;28;20046;-71
2021/01/09 00:51:24;;;;;;;29.60;14.93;;;0.40;79.90;;;-1.66;80.53;96072.25;4982927;28;20026;-70
2021/01/09 00:53:50;;;;;;;28.38;14.38;;;0.30;79.80;;;-1.67;80.54;96071.44;4981870;28;20328;-72
2021/01/09 00:56:16;;;;;;;26.73;14.50;;;0.40;79.70;;;-1.66;80.87;96067.09;4982203;28;20062;-71
2021/01/09 00:58:42;;;;;;;29.60;15.25;;;0.50;79.50;;;-1.66;80.67;96067.09;4967755;28;20038;-72
2021/01/09 01:01:08;;;;;;;30.20;15.38;;;0.40;79.60;;;-1.68;80.81;96062.06;4985503;28;20046;-69
2021/01/09 01:03:34;;;;;;;26.13;13.73;;;0.40;79.60;;;-1.69;80.59;96073.31;4985576;28;20538;-69
2021/01/09 01:06:00;;;;;;;30.02;15.40;;;0.40;79.70;;;-1.70;80.40;96065.69;4987080;28;20124;-69
2021/01/09 01:08:27;;;;;;;25.88;14.32;;;0.30;80.00;;;-1.73;80.43;96063.34;4985741;28;20113;-69
2021/01/09 01:10:54;;;;;;;28.38;14.80;;;0.20;80.20;;;-1.71;80.59;96074.38;4988710;28;20451;-70
2021/01/09 01:13:20;;;;;;;28.80;14.68;;;0.30;80.10;;;-1.70;80.60;96068.28;4983866;28;20061;-69
2021/01/09 01:15:46;;;;;;;28.38;15.23;;;0.40;79.90;;;-1.68;80.42;96063.81;4985386;28;20422;-69
2021/01/09 01:18:12;;;;;;;27.25;14.65;;;0.40;79.70;;;-1.66;81.16;96067.09;4982431;28;20464;-69
2021/01/09 01:20:37;;;;;;;28.52;14.48;;;0.50;79.50;;;-1.65;81.05;96069.56;4985123;28;20484;-69
2021/01/09 01:23:04;;;;;;;28.45;14.43;;;0.60;79.20;;;-1.68;80.84;96074.13;4987132;28;20065;-69
2021/01/09 01:25:29;;;;;;;30.20;14.30;;;0.60;79.20;;;-1.62;81.03;96071.09;4966634;28;20370;-69
2021/01/09 01:27:55;;;;;;;27.45;14.02;;;0.60;79.20;;;-1.61;80.71;96075.31;4975881;28;20042;-72
2021/01/09 01:30:21;;;;;;;29.35;13.95;;;0.60;79.10;;;-1.60;80.79;96074.38;4984197;28;20065;-70
2021/01/09 01:32:47;;;;;;;27.08;13.80;;;0.60;79.10;;;-1.59;80.95;96074.25;4984602;28;20120;-71
2021/01/09 01:35:12;;;;;;;25.77;14.05;;;0.60;78.80;;;-1.57;80.90;96074.16;4978811;28;20050;-71
2021/01/09 01:37:38;;;;;;;25.80;13.50;;;0.60;78.90;;;-1.54;80.40;96081.66;4983334;28;20169;-69
2021/01/09 01:40:05;;;;;;;28.88;14.93;;;0.70;78.80;;;-1.52;80.90;96074.63;4967486;28;20070;-69
2021/01/09 01:42:31;;;;;;;29.65;14.18;;;0.80;78.70;;;-1.52;80.78;96079.81;4967400;28;20045;-70
2021/01/09 01:44:57;;;;;;;25.98;14.43;;;0.80;78.60;;;-1.51;80.58;96076.28;4984718;28;20122;-69
2021/01/09 01:47:23;;;;;;;25.63;14.30;;;0.70;78.20;;;-1.49;80.35;96079.56;4983325;28;21484;-70
2021/01/09 01:49:49;;;;;;;26.88;14.13;;;0.80;78.20;;;-1.48;80.43;96085.53;4967559;28;20090;-71
2021/01/09 01:52:15;;;;;;;27.10;13.93;;;0.70;78.20;;;-1.48;80.89;96086.38;4982153;28;20049;-70
2021/01/09 01:54:42;;;;;;;27.42;13.85;;;0.70;78.30;;;-1.48;80.72;96095.84;4978782;28;20066;-70
2021/01/09 01:57:12;;;;;;;27.60;14.23;;;0.70;78.50;;;-1.49;80.88;96084.72;4973559;28;20038;-70
2021/01/09 01:59:41;;;;;;;25.35;14.02;;;0.60;78.40;;;-1.49;80.45;96089.88;4979699;28;20035;-69
2021/01/09 02:02:09;;;;;;;27.05;14.45;;;0.70;78.40;;;-1.48;80.28;96085.53;4963866;28;20039;-70
2021/01/09 02:04:35;;;;;;;28.17;14.00;;;0.70;78.40;;;-1.49;80.39;96086.47;4988661;28;20501;-69
2021/01/09 02:07:07;;;;;;;24.10;13.30;;;0.70;78.20;;;-1.49;80.90;96084.72;4967322;28;20038;-70
2021/01/09 02:09:37;;;;;;;27.42;14.25;;;0.70;78.40;;;-1.54;80.49;96073.94;4986219;28;20041;-72
2021/01/09 02:12:10;;;;;;;26.67;14.27;;;0.80;78.10;;;-1.48;80.93;96091.53;4970125;28;20042;-70
2021/01/09 02:14:51;;;;;;;27.65;13.98;;;0.80;78.20;;;-1.46;81.06;96086.25;4987508;28;20281;-70
2021/01/09 02:17:18;;;;;;;25.33;14.23;;;0.70;78.00;;;-1.48;80.57;96081.22;4986469;28;20038;-69
2021/01/09 02:19:44;;;;;;;25.75;13.82;;;0.80;78.10;;;-1.48;80.41;96091.53;4969295;28;20034;-70
2021/01/09 02:22:17;;;;;;;25.08;13.98;;;0.70;78.00;;;-1.51;80.59;96084.03;4986497;28;20037;-70
2021/01/09 02:24:43;;;;;;;26.58;13.80;;;0.70;78.20;;;-1.52;80.75;96079.81;4980558;28;20549;-70
2021/01/09 02:27:09;;;;;;;26.63;14.60;;;0.70;78.20;;;-1.50;80.06;96080.50;4987603;28;20049;-70
2021/01/09 02:30:02;;;;;;;25.58;13.10;;;0.80;78.20;;;-1.51;81.02;96081.44;4952200;28;20031;-70
2021/01/09 02:32:41;;;;;;;25.42;13.32;;;0.70;78.00;;;-1.52;80.74;96084.13;5018979;28;20042;-69
2021/01/09 02:35:07;;;;;;;24.73;13.20;;;0.70;78.10;;;-1.51;80.44;96081.44;4987049;28;20030;-70
2021/01/09 02:37:33;;;;;;;25.73;14.07;;;0.70;77.90;;;-1.51;80.44;96081.44;5006493;28;20092;-71
2021/01/09 02:39:58;;;;;;;24.73;13.68;;;0.70;78.10;;;-1.52;79.92;96074.63;5021659;28;20084;-69
2021/01/09 02:42:24;;;;;;;27.27;13.75;;;0.70;77.90;;;-1.51;80.58;96072.88;5004418;28;20046;-72
2021/01/09 02:44:51;;;;;;;25.02;14.27;;;0.70;77.80;;;-1.52;80.42;96074.63;5000664;28;20065;-70
2021/01/09 02:47:17;;;;;;;25.90;13.88;;;0.80;77.90;;;-1.50;80.25;96077.91;4988792;28;20057;-70
2021/01/09 02:49:43;;;;;;;27.27;14.68;;;0.80;77.70;;;-1.50;80.34;96083.09;5004625;28;20407;-70
2021/01/09 02:52:09;;;;;;;27.67;13.25;;;0.70;77.60;;;-1.50;80.47;96082.25;5006434;28;20141;-69
2021/01/09 02:54:36;;;;;;;26.05;13.60;;;0.80;77.80;;;-1.49;80.59;96087.31;5005959;28;20153;-70
2021/01/09 02:57:02;;;;;;;28.15;13.80;;;0.80;77.80;;;-1.48;80.51;96091.53;5006072;28;20084;-70
2021/01/09 02:59:28;;;;;;;24.00;13.27;;;0.80;77.90;;;-1.51;80.50;96086.59;5005439;28;20048;-70
2021/01/09 03:01:54;;;;;;;25.17;13.70;;;0.70;77.80;;;-1.52;80.09;96086.72;5006610;28;20037;-70
2021/01/09 03:04:19;;;;;;;25.77;13.68;;;0.60;77.90;;;-1.57;80.50;96087.06;5006488;28;20041;-70
2021/01/09 03:06:45;;;;;;;24.75;13.48;;;0.50;78.10;;;-1.60;80.61;96082.94;5001792;28;20038;-70
2021/01/09 03:09:11;;;;;;;25.60;14.20;;;0.60;78.40;;;-1.61;80.54;96086.44;4989510;28;20545;-69
2021/01/09 03:11:38;;;;;;;28.98;14.43;;;0.60;78.40;;;-1.59;80.34;96078.59;5002844;28;20331;-69
2021/01/09 03:14:04;;;;;;;24.92;13.60;;;0.60;78.10;;;-1.62;80.43;96079.66;4998662;28;20033;-69
2021/01/09 03:16:30;;;;;;;25.08;14.50;;;0.60;78.00;;;-1.62;80.13;96091.72;5007635;28;20030;-70
2021/01/09 03:18:56;;;;;;;29.00;14.35;;;0.60;78.00;;;-1.61;80.27;96093.38;5006832;28;20458;-69
2021/01/09 03:21:21;;;;;;;25.95;14.40;;;0.60;78.20;;;-1.61;80.15;96083.88;5018954;28;20120;-70
2021/01/09 03:23:47;;;;;;;27.02;14.02;;;0.70;78.10;;;-1.59;80.46;96094.06;5004561;28;20525;-70
2021/01/09 03:26:13;;;;;;;25.48;13.30;;;0.70;78.00;;;-1.59;80.34;96096.66;5036147;28;20037;-70
2021/01/09 03:28:39;;;;;;;26.85;14.07;;;0.70;77.70;;;-1.59;80.61;96088.91;4998236;28;20641;-72
2021/01/09 03:31:04;;;;;;;28.75;15.27;;;0.70;77.90;;;-1.58;80.19;96096.56;5003859;28;20474;-70
2021/01/09 03:33:30;;;;;;;24.50;13.80;;;0.70;77.80;;;-1.58;80.61;96096.56;5005540;28;20474;-70
2021/01/09 03:35:56;;;;;;;27.25;14.73;;;0.70;77.90;;;-1.57;80.36;96098.19;5002716;28;20037;-70
2021/01/09 03:38:22;;;;;;;28.30;15.23;;;0.70;78.00;;;-1.56;80.37;96096.44;5005510;28;20224;-70
2021/01/09 03:40:48;;;;;;;29.27;14.73;;;0.80;78.00;;;-1.53;80.14;96103.13;5001418;28;20042;-69
2021/01/09 03:43:13;;;;;;;25.35;13.40;;;0.70;77.80;;;-1.53;80.24;96100.56;4998786;28;20038;-69
2021/01/09 03:45:39;;;;;;;28.25;14.32;;;0.70;77.70;;;-1.54;79.99;96107.47;5003307;28;20089;-70
2021/01/09 03:48:06;;;;;;;27.98;15.55;;;0.70;77.70;;;-1.56;80.27;96105.00;5005430;28;20072;-69
2021/01/09 03:50:32;;;;;;;26.60;14.13;;;0.70;78.10;;;-1.56;80.30;96104.19;5006513;28;20046;-70
2021/01/09 03:52:57;;;;;;;26.27;14.15;;;0.70;78.10;;;-1.53;80.16;96106.53;5005353;28;20061;-68
2021/01/09 03:55:23;;;;;;;26.17;14.82;;;0.80;78.10;;;-1.53;80.43;96108.28;5006999;28;20049;-70
2021/01/09 03:57:49;;;;;;;28.30;13.68;;;0.70;78.20;;;-1.54;80.20;96107.47;5000088;28;20069;-70
2021/01/09 04:00:15;;;;;;;26.75;14.85;;;0.70;78.20;;;-1.54;80.71;96107.47;5003222;28;20038;-70
2021/01/09 04:02:41;;;;;;;27.05;15.02;;;0.70;78.10;;;-1.56;80.19;96105.00;5000782;28;20044;-70
2021/01/09 04:05:10;;;;;;;30.55;14.73;;;0.60;78.10;;;-1.56;80.27;96097.28;5001195;28;20050;-69
2021/01/09 04:07:36;;;;;;;29.85;14.30;;;0.60;78.50;;;-1.54;80.77;96094.56;4985836;28;20110;-69
2021/01/09 04:10:02;;;;;;;27.70;14.38;;;0.70;78.60;;;-1.53;80.35;96096.22;4988511;28;20117;-70
2021/01/09 04:12:28;;;;;;;30.67;15.13;;;0.70;78.70;;;-1.60;80.64;96082.94;4988211;28;20129;-69
2021/01/09 04:14:54;;;;;;;27.75;15.10;;;0.60;78.80;;;-1.55;80.87;96096.31;5006253;28;20045;-70
2021/01/09 04:17:20;;;;;;;29.40;15.23;;;0.60;78.30;;;-1.53;80.33;96088.47;4987274;28;20034;-70
2021/01/09 04:19:45;;;;;;;28.25;15.07;;;0.70;78.50;;;-1.53;80.80;96093.63;5002271;28;20076;-70
2021/01/09 04:22:11;;;;;;;29.45;15.52;;;0.70;78.40;;;-1.53;80.55;96091.06;5003524;28;20065;-70
2021/01/09 04:24:37;;;;;;;27.58;15.02;;;0.70;78.40;;;-1.55;80.75;96098.91;5002276;28;20054;-71
2021/01/09 04:27:03;;;;;;;28.80;15.15;;;0.80;78.40;;;-1.53;80.87;96097.97;5005271;28;20096;-71
2021/01/09 04:29:29;;;;;;;27.83;14.60;;;0.70;78.50;;;-1.53;80.56;96098.78;5012140;28;20671;-67
2021/01/09 04:31:54;;;;;;;28.20;14.77;;;0.80;78.40;;;-1.54;80.79;96099.72;5000379;28;20111;-68
2021/01/09 04:34:23;;;;;;;27.55;15.15;;;0.70;78.30;;;-1.56;80.46;96094.69;5003234;28;20025;-69
2021/01/09 04:36:49;;;;;;;27.85;15.23;;;0.60;78.70;;;-1.56;80.71;96092.09;5002980;28;20042;-70
2021/01/09 04:39:15;;;;;;;30.70;16.70;;;0.60;78.60;;;-1.58;80.78;96093.97;5032266;28;20041;-69
2021/01/09 04:41:41;;;;;;;33.13;15.23;;;0.60;78.70;;;-1.57;80.25;96095.63;4966327;28;20038;-70
2021/01/09 04:44:08;;;;;;;28.50;15.23;;;0.60;78.60;;;-1.57;80.49;96102.53;5009125;28;20046;-69
2021/01/09 04:46:55;;;;;;;31.58;15.63;;;0.60;78.40;;;-1.57;81.07;96094.81;5006395;28;20056;-69
2021/01/09 04:49:25;;;;;;;30.85;16.30;;;0.70;78.50;;;-1.57;80.99;96102.53;5005867;28;20370;-71
2021/01/09 04:51:52;;;;;;;29.08;15.68;;;0.60;78.40;;;-1.59;80.27;96099.22;5000097;28;20034;-70
2021/01/09 04:54:19;;;;;;;29.80;16.40;;;0.60;78.40;;;-1.59;80.78;96099.22;5021140;28;20608;-70
2021/01/09 04:56:46;;;;;;;31.85;16.15;;;0.60;78.50;;;-1.60;80.61;96107.91;5006715;28;20378;-70
2021/01/09 04:59:13;;;;;;;28.50;15.07;;;0.60;78.30;;;-1.62;80.63;96108.00;5007141;28;20034;-71
2021/01/09 05:01:43;;;;;;;29.35;15.57;;;0.50;78.40;;;-1.64;81.31;96109.06;5005279;28;20068;-70
2021/01/09 05:04:10;;;;;;;29.83;15.57;;;0.50;78.90;;;-1.66;80.88;96118.69;5006612;28;20417;-71
2021/01/09 05:06:39;;;;;;;31.98;16.33;;;0.50;78.70;;;-1.69;80.96;96113.75;4988611;28;20049;-70
2021/01/09 05:09:06;;;;;;;30.33;15.73;;;0.50;78.90;;;-1.68;80.99;96116.22;5006876;28;20026;-71
2021/01/09 05:11:36;;;;;;;27.23;14.80;;;0.60;79.00;;;-1.67;80.81;96117.03;5005181;28;20034;-71
2021/01/09 05:14:04;;;;;;;30.33;15.23;;;0.60;78.80;;;-1.69;80.67;96118.91;4989590;28;20121;-71
2021/01/09 05:16:30;;;;;;;31.70;16.75;;;0.50;78.90;;;-1.69;80.49;96118.91;4970984;28;20497;-70
2021/01/09 05:18:56;;;;;;;29.02;15.98;;;0.60;78.80;;;-1.71;80.89;96125.94;5004227;28;20713;-70
2021/01/09 05:21:22;;;;;;;31.63;15.80;;;0.50;78.80;;;-1.71;80.60;96126.75;5004872;28;20041;-71
2021/01/09 05:23:59;;;;;;;29.75;15.73;;;0.50;78.90;;;-1.71;81.36;96131.09;4987964;28;20060;-70
2021/01/09 05:26:24;;;;;;;28.80;15.95;;;0.50;78.90;;;-1.73;80.72;96133.78;4988097;28;20144;-67
2021/01/09 05:28:55;;;;;;;33.10;16.63;;;0.50;78.90;;;-1.71;81.10;96131.09;5003920;28;20030;-66
2021/01/09 05:31:22;;;;;;;30.48;16.52;;;0.50;78.70;;;-1.71;80.53;96131.09;4988629;28;20464;-66
2021/01/09 05:33:49;;;;;;;29.02;15.77;;;0.50;78.70;;;-1.69;80.75;96140.38;5006141;28;20061;-69
2021/01/09 05:36:15;;;;;;;31.20;15.40;;;0.60;78.90;;;-1.69;80.74;96129.22;5007901;28;20125;-66
2021/01/09 05:38:42;;;;;;;29.00;16.30;;;0.60;78.90;;;-1.67;81.21;96137.66;5008665;28;20413;-70
2021/01/09 05:41:13;;;;;;;33.35;16.10;;;0.60;78.60;;;-1.66;80.88;96134.97;5009070;28;20042;-65
2021/01/09 05:43:39;;;;;;;32.70;16.33;;;0.60;78.70;;;-1.66;81.00;96139.31;5008326;28;20518;-66
2021/01/09 05:46:06;;;;;;;28.08;16.45;;;0.70;78.50;;;-1.65;80.88;96140.94;4992213;28;20045;-66
2021/01/09 05:48:33;;;;;;;31.23;16.55;;;0.70;78.50;;;-1.65;80.73;96140.94;5008993;28;20219;-65
2021/01/09 05:51:05;;;;;;;34.58;17.33;;;0.60;78.60;;;-1.67;81.60;96142.81;4988754;28;20027;-66
2021/01/09 05:53:45;;;;;;;32.58;16.83;;;0.50;78.70;;;-1.70;81.36;96143.88;4988060;28;20449;-66
2021/01/09 05:56:13;;;;;;;31.25;16.77;;;0.50;78.90;;;-1.71;80.62;96141.41;4990059;28;20060;-66
2021/01/09 05:58:39;;;;;;;31.08;15.75;;;0.50;78.90;;;-1.70;80.69;96145.63;5008074;28;20065;-65
2021/01/09 06:01:12;;;;;;;30.77;16.65;;;0.60;78.80;;;-1.70;81.72;96148.22;5008741;28;20553;-65
2021/01/09 06:03:52;;;;;;;34.72;16.75;;;0.50;79.00;;;-1.69;81.14;96145.53;5008358;28;20057;-66
2021/01/09 06:06:32;;;;;;;36.60;16.70;;;0.60;78.70;;;-1.68;81.52;96152.31;5009345;28;20402;-66
2021/01/09 06:09:00;;;;;;;33.00;16.70;;;0.60;78.70;;;-1.68;80.59;96154.06;5009755;28;20080;-66
2021/01/09 06:11:37;;;;;;;31.63;16.92;;;0.60;78.80;;;-1.68;80.94;96151.50;5008902;28;20645;-66
2021/01/09 06:14:08;;;;;;;29.23;16.40;;;0.60;78.60;;;-1.67;80.76;96147.97;5009338;28;20037;-65
2021/01/09 06:16:36;;;;;;;30.10;16.33;;;0.60;78.40;;;-1.67;80.82;96147.97;5009734;28;20026;-66
2021/01/09 06:19:02;;;;;;;32.78;16.80;;;0.70;78.30;;;-1.65;81.08;96151.25;5008968;28;20030;-65
2021/01/09 06:21:29;;;;;;;32.78;16.50;;;0.70;78.10;;;-1.65;80.70;96153.84;5010209;28;20092;-66
2021/01/09 06:23:59;;;;;;;34.38;16.50;;;0.70;78.10;;;-1.66;81.34;96153.03;5009793;28;20046;-66
2021/01/09 06:26:26;;;;;;;29.92;16.02;;;0.70;78.00;;;-1.63;80.73;96154.56;5008090;28;20113;-66
2021/01/09 06:28:57;;;;;;;28.23;15.50;;;0.80;78.10;;;-1.62;81.07;96156.19;5009524;28;20572;-66
2021/01/09 06:31:25;;;;;;;33.30;16.08;;;0.70;77.90;;;-1.60;80.40;96159.47;5010291;28;20053;-66
2021/01/09 06:33:52;;;;;;;32.60;16.40;;;0.80;77.70;;;-1.61;80.67;96168.16;5009861;28;20489;-65
2021/01/09 06:36:19;;;;;;;29.77;16.10;;;0.60;77.50;;;-1.62;80.57;96162.16;5008145;28;20041;-65
2021/01/09 06:38:51;;;;;;;28.50;15.43;;;0.60;77.80;;;-1.61;80.93;96158.66;5009364;28;20494;-66
2021/01/09 06:41:18;;;;;;;33.53;17.95;;;0.70;77.80;;;-1.60;81.02;96164.63;4992878;28;20042;-65
2021/01/09 06:43:54;;;;;;;34.40;16.42;;;0.70;77.70;;;-1.61;80.65;96173.31;5009332;28;20113;-66
2021/01/09 06:46:29;;;;;;;30.15;17.02;;;0.60;77.90;;;-1.64;81.06;96173.53;4991612;28;20049;-69
2021/01/09 06:48:55;;;;;;;32.33;16.83;;;0.60;78.00;;;-1.64;80.77;96178.69;4976724;28;20117;-66
2021/01/09 06:51:36;;;;;;;30.77;17.10;;;0.60;78.10;;;-1.65;81.18;96177.06;5006269;28;20042;-67
2021/01/09 06:54:13;;;;;;;33.25;17.05;;;0.60;78.10;;;-1.64;81.13;96186.44;4993251;28;20053;-67
2021/01/09 06:56:39;;;;;;;32.83;16.80;;;0.60;77.90;;;-1.65;80.53;96177.06;4987816;28;20042;-66
2021/01/09 06:59:05;;;;;;;33.60;17.08;;;0.60;78.00;;;-1.64;80.35;96183.84;4990026;28;20061;-65
2021/01/09 07:01:37;;;;;;;31.45;16.05;;;0.70;77.80;;;-1.64;80.67;96184.69;4989994;28;20117;-66
2021/01/09 07:04:04;;;;;;;30.40;16.63;;;0.70;77.70;;;-1.62;80.26;96176.81;4987082;28;20049;-66
2021/01/09 07:06:54;;;;;;;32.83;17.00;;;0.70;77.50;;;-1.60;80.78;96180.13;4989287;28;20041;-65
2021/01/09 07:09:24;;;;;;;31.37;17.07;;;0.70;77.40;;;-1.62;80.29;96180.22;4989392;28;20065;-65
2021/01/09 07:11:52;;;;;;;29.02;15.82;;;0.70;77.50;;;-1.64;80.17;96184.69;4955237;28;20038;-64
2021/01/09 07:14:18;;;;;;;33.00;16.20;;;0.60;77.70;;;-1.67;80.64;96184.91;4952562;28;20049;-69
2021/01/09 07:16:45;;;;;;;34.95;18.45;;;0.60;77.80;;;-1.65;80.45;96184.78;4998516;28;20459;-67
2021/01/09 07:19:10;;;;;;;40.97;22.20;;;0.60;77.70;;;-1.64;80.56;96191.59;4955807;28;20026;-66
2021/01/09 07:21:36;;;;;;;37.47;19.15;;;0.60;77.80;;;-1.63;80.73;96193.22;4953355;28;20113;-68
2021/01/09 07:24:02;;;;;;;33.10;17.60;;;0.70;77.80;;;-1.61;80.44;96191.38;4970070;28;20035;-68
2021/01/09 07:26:28;;;;;;;35.15;17.48;;;0.70;77.70;;;-1.60;80.61;96193.00;4966210;28;20402;-69
2021/01/09 07:28:53;;;;;;;36.08;18.98;;;0.80;77.50;;;-1.57;80.44;96192.81;4971034;28;20092;-67
2021/01/09 07:31:25;;;;;;;45.33;22.63;;;0.80;77.60;;;-1.55;81.14;96204.66;4987675;28;20595;-70
2021/01/09 07:33:58;;;;;;;37.45;19.20;;;0.80;77.60;;;-1.53;81.25;96194.22;4967949;28;20039;-68
2021/01/09 07:36:30;;;;;;;28.80;16.55;;;0.90;77.60;;;-1.49;81.05;96207.72;4982431;28;20121;-69
2021/01/09 07:39:00;;;;;;;43.33;21.90;;;0.90;77.20;;;-1.46;80.82;96207.50;4939356;28;20550;-69
2021/01/09 07:41:34;;;;;;;56.33;29.33;;;0.90;77.90;;;-1.44;80.56;96209.00;4968305;28;20062;-70
2021/01/09 07:44:18;;;;;;;46.22;23.38;;;1.00;77.50;;;-1.42;81.11;96212.31;4952268;28;20030;-71
2021/01/09 07:46:57;;;;;;;39.22;19.98;;;1.10;77.20;;;-1.38;80.93;96207.72;4982440;28;20057;-71
2021/01/09 07:49:34;;;;;;;37.05;19.88;;;1.00;77.70;;;-1.34;81.39;96207.41;4987602;28;20034;-71
2021/01/09 07:52:01;;;;;;;35.13;17.67;;;1.10;77.80;;;-1.32;80.55;96210.72;4996037;28;20402;-68
2021/01/09 07:54:40;;;;;;;31.83;16.38;;;1.10;76.90;;;-1.30;80.86;96215.75;4988773;28;20502;-68
2021/01/09 07:57:21;;;;;;;33.28;17.25;;;1.10;76.70;;;-1.27;80.47;96218.94;4990127;28;20520;-68
2021/01/09 07:59:59;;;;;;;34.25;16.52;;;1.20;76.50;;;-1.23;80.15;96219.50;4974357;28;20509;-68
2021/01/09 08:02:31;;;;;;;31.02;16.40;;;1.20;76.20;;;-1.21;80.13;96221.97;5006507;28;20046;-68
2021/01/09 08:05:08;;;;;;;36.25;18.05;;;1.20;76.10;;;-1.18;80.28;96224.31;5007549;28;20045;-69
2021/01/09 08:07:44;;;;;;;32.38;16.23;;;1.20;75.90;;;-1.17;79.75;96228.56;4990484;28;20034;-68
2021/01/09 08:10:33;;;;;;;34.53;19.27;;;1.20;76.00;;;-1.16;80.03;96232.78;4973194;28;20041;-70
2021/01/09 08:13:06;;;;;;;29.85;16.30;;;1.10;75.80;;;-1.16;79.65;96232.78;4988278;28;20060;-66
2021/01/09 08:15:35;;;;;;;31.83;17.25;;;1.10;75.80;;;-1.13;79.78;96237.72;5006391;28;20389;-69
2021/01/09 08:18:02;;;;;;;32.83;16.13;;;1.20;75.80;;;-1.15;79.98;96232.66;5006215;28;20041;-68
2021/01/09 08:20:28;;;;;;;31.77;16.85;;;1.10;75.70;;;-1.13;79.93;96229.97;4989523;28;20059;-68
2021/01/09 08:23:02;;;;;;;28.00;15.65;;;1.20;75.70;;;-1.12;79.95;96227.31;5006471;28;20046;-70
2021/01/09 08:25:32;;;;;;;30.45;16.83;;;1.20;75.60;;;-1.08;79.92;96233.06;5006281;28;20137;-71
2021/01/09 08:27:59;;;;;;;31.00;16.35;;;1.30;75.60;;;-1.05;79.89;96238.81;5007429;28;20620;-68
2021/01/09 08:30:27;;;;;;;30.42;16.45;;;1.30;75.50;;;-1.02;79.57;96238.56;5007115;28;20042;-71
2021/01/09 08:33:16;;;;;;;31.10;16.00;;;1.40;75.00;;;-0.99;79.61;96243.50;5007095;28;20038;-70
2021/01/09 08:35:50;;;;;;;30.08;15.80;;;1.50;74.80;;;-0.95;79.28;96238.94;4988267;28;20054;-68
2021/01/09 08:38:16;;;;;;;29.38;15.70;;;1.40;74.60;;;-0.93;79.55;96244.78;4997027;28;20530;-72
2021/01/09 08:40:45;;;;;;;26.85;15.75;;;1.40;74.70;;;-0.92;79.62;96246.44;4993155;28;20052;-72
2021/01/09 08:43:14;;;;;;;48.05;23.02;;;1.40;74.80;;;-0.89;79.33;96253.97;5006602;28;20053;-69
2021/01/09 08:45:55;;;;;;;39.08;19.02;;;1.50;74.80;;;-0.86;79.11;96251.16;4987724;28;20041;-68
2021/01/09 08:48:28;;;;;;;31.80;16.55;;;1.50;74.70;;;-0.84;78.92;96257.03;4967065;28;20081;-68
2021/01/09 08:51:11;;;;;;;31.15;17.30;;;1.60;74.20;;;-0.80;78.75;96261.03;4968505;28;20085;-67
2021/01/09 08:54:02;;;;;;;27.63;16.05;;;1.60;74.40;;;-0.72;78.95;96255.28;4979765;28;20117;-68
2021/01/09 08:56:29;;;;;;;30.05;16.92;;;1.70;73.90;;;-0.67;79.07;96258.34;4967843;28;20118;-71
2021/01/09 08:58:55;;;;;;;28.90;16.10;;;1.70;73.80;;;-0.67;79.43;96263.53;4982778;28;20042;-70
2021/01/09 09:01:46;;;;;;;29.02;16.50;;;1.70;73.90;;;-0.68;78.29;96260.13;4966289;28;20406;-69
2021/01/09 09:04:12;;;;;;;27.10;15.77;;;1.60;74.10;;;-0.68;79.07;96267.88;4948205;28;20065;-69
2021/01/09 09:06:41;;;;;;;29.75;16.23;;;1.60;74.00;;;-0.70;78.96;96267.13;4978744;28;20030;-70
2021/01/09 09:09:07;;;;;;;31.80;16.15;;;1.40;74.40;;;-0.68;79.01;96267.00;4987784;28;20034;-69
2021/01/09 09:11:32;;;;;;;28.67;15.75;;;1.60;74.30;;;-0.67;78.85;96269.50;4990111;28;20065;-69
2021/01/09 09:14:09;;;;;;;30.35;16.58;;;1.60;74.30;;;-0.69;78.51;96260.19;4973567;28;20112;-68
2021/01/09 09:16:35;;;;;;;30.80;16.85;;;1.70;73.90;;;-0.64;79.00;96263.28;4973027;28;20034;-67
2021/01/09 09:19:15;;;;;;;28.27;16.10;;;1.60;74.20;;;-0.62;79.06;96269.16;4990548;28;20034;-68
2021/01/09 09:21:46;;;;;;;31.42;16.30;;;1.70;75.70;;;-0.58;79.08;96262.00;4979031;28;20133;-67
2021/01/09 09:24:13;;;;;;;42.42;22.05;;;1.80;74.90;;;-0.54;78.93;96269.38;4989190;28;20047;-68
2021/01/09 09:26:38;;;;;;;34.92;18.17;;;1.80;74.40;;;-0.52;79.00;96270.09;4987709;28;20578;-72
2021/01/09 09:29:04;;;;;;;30.38;16.70;;;1.80;74.20;;;-0.47;78.93;96272.31;4975609;28;20034;-72
2021/01/09 09:31:36;;;;;;;32.22;18.33;;;1.90;74.20;;;-0.38;78.84;96275.03;4991081;28;20050;-71
2021/01/09 09:34:12;;;;;;;31.73;16.30;;;2.10;74.00;;;-0.31;78.68;96275.38;4991590;28;20066;-74
2021/01/09 09:36:50;;;;;;;30.70;16.45;;;2.20;73.50;;;-0.24;78.08;96284.28;4991153;28;20038;-73
2021/01/09 09:39:23;;;;;;;31.83;17.75;;;2.20;72.50;;;-0.20;78.22;96277.16;4992182;28;20465;-72
2021/01/09 09:42:09;;;;;;;33.42;17.52;;;2.20;72.90;;;-0.19;77.56;96277.03;4972927;28;20057;-72
2021/01/09 09:44:43;;;;;;;35.33;17.50;;;2.20;73.00;;;-0.20;77.94;96275.38;4979347;28;20721;-73
2021/01/09 09:47:24;;;;;;;31.27;17.02;;;2.10;73.20;;;-0.20;77.99;96279.75;5010757;28;20038;-74
2021/01/09 09:49:50;;;;;;;28.83;16.15;;;2.10;73.40;;;-0.18;78.63;96278.69;5010226;28;20048;-73
2021/01/09 09:52:20;;;;;;;32.30;16.20;;;2.10;73.40;;;-0.13;78.23;96281.72;5010035;28;20033;-72
2021/01/09 09:54:47;;;;;;;31.55;17.17;;;2.20;73.10;;;-0.11;78.19;96277.25;5008172;28;20030;-71
2021/01/09 09:57:22;;;;;;;31.85;18.00;;;2.10;72.70;;;-0.08;77.42;96277.00;5008462;28;20037;-72
2021/01/09 10:00:05;;;;;;;32.10;17.00;;;2.20;72.70;;;-0.02;77.76;96270.53;5009342;28;20525;-71
2021/01/09 10:02:31;;;;;;;33.95;17.90;;;2.40;72.60;;;0.04;77.94;96270.06;4992497;28;20422;-72
2021/01/09 10:04:56;;;;;;;30.45;17.58;;;2.60;72.30;;;0.12;77.87;96266.88;5006736;28;20076;-69
2021/01/09 10:07:23;;;;;;;30.98;17.67;;;2.70;71.50;;;0.18;77.91;96268.97;5007705;28;20045;-69
2021/01/09 10:09:49;;;;;;;32.03;17.48;;;2.70;70.70;;;0.22;78.38;96262.63;5005794;28;20049;-69
2021/01/09 10:12:14;;;;;;;36.28;17.20;;;2.80;70.60;;;0.28;78.14;96262.16;5018500;28;20080;-72
2021/01/09 10:14:41;;;;;;;27.85;16.45;;;2.80;70.40;;;0.33;78.03;96262.59;5009191;28;20115;-72
2021/01/09 10:17:13;;;;;;;29.83;16.70;;;2.90;70.40;;;0.41;76.43;96260.22;5009407;28;20034;-70
2021/01/09 10:19:39;;;;;;;29.90;16.83;;;3.00;70.00;;;0.43;77.86;96247.97;4990342;28;20046;-72